createdAt,value
2018-08-11T00:00:10.449Z,99603.30
2018-08-11T00:03:12.744Z,99604.39
2018-08-11T00:06:15.004Z,99603.66
2018-08-11T00:09:17.392Z,99596.81
2018-08-11T00:12:19.694Z,99596.49
2018-08-11T00:15:22.020Z,99604.08
2018-08-11T00:18:24.319Z,99597.63
2018-08-11T00:21:26.570Z,99596.22
2018-08-11T00:24:29.234Z,99596.58
2018-08-11T00:27:31.772Z,99587.14
2018-08-11T00:30:34.037Z,99589.87
2018-08-11T00:33:36.276Z,99591.41
2018-08-11T00:36:38.586Z,99590.30
2018-08-11T00:39:40.817Z,99591.50
2018-08-11T00:42:44.433Z,99591.80
2018-08-11T00:45:46.777Z,99592.77
2018-08-11T00:48:50.134Z,99593.70
2018-08-11T00:51:52.341Z,99591.52
2018-08-11T00:54:54.572Z,99586.22
2018-08-11T00:57:56.949Z,99591.75
2018-08-11T01:00:59.275Z,99573.57
2018-08-11T01:04:01.619Z,99584.44
2018-08-11T01:07:04.044Z,99581.66
2018-08-11T01:10:06.949Z,99582.16
2018-08-11T01:13:09.181Z,99588.26
2018-08-11T01:16:11.545Z,99589.72
2018-08-11T01:19:13.913Z,99586.98
2018-08-11T01:22:16.180Z,99583.47
2018-08-11T01:25:18.505Z,99592.06
2018-08-11T01:28:20.811Z,99583.80
2018-08-11T01:31:23.220Z,99577.72
2018-08-11T01:34:25.498Z,99576.52
2018-08-11T01:37:27.937Z,99578.29
2018-08-11T01:40:30.475Z,99573.42
2018-08-11T01:43:32.798Z,99576.72
2018-08-11T01:46:35.130Z,99575.73
2018-08-11T01:49:37.317Z,99570.94
2018-08-11T01:52:41.408Z,99576.16
2018-08-11T01:55:43.629Z,99568.41
2018-08-11T01:58:45.939Z,99568.48
2018-08-11T02:01:48.228Z,99566.37
2018-08-11T02:04:50.640Z,99574.83
2018-08-11T02:07:52.981Z,99570.02
2018-08-11T02:10:55.277Z,99578.27
2018-08-11T02:13:57.628Z,99573.55
2018-08-11T02:16:59.904Z,99571.38
2018-08-11T02:20:02.131Z,99573.33
2018-08-11T02:23:04.362Z,99564.71
2018-08-11T02:26:06.624Z,99565.08
2018-08-11T02:29:08.891Z,99566.17
2018-08-11T02:32:11.106Z,99558.31
2018-08-11T02:35:13.799Z,99554.64
2018-08-11T02:38:16.053Z,99563.07
2018-08-11T02:41:18.329Z,99560.66
2018-08-11T02:44:20.760Z,99558.36
2018-08-11T02:47:22.984Z,99563.10
2018-08-11T02:50:25.193Z,99558.66
2018-08-11T02:53:27.468Z,99563.56
2018-08-11T02:56:29.907Z,99564.06
2018-08-11T02:59:32.162Z,99562.62
2018-08-11T03:02:34.820Z,99569.34
2018-08-11T03:05:37.035Z,99564.58
2018-08-11T03:08:39.243Z,99571.30
2018-08-11T03:11:41.548Z,99570.29
2018-08-11T03:14:43.747Z,99572.55
2018-08-11T03:17:46.123Z,99569.34
2018-08-11T03:20:48.420Z,99569.97
2018-08-11T03:23:50.616Z,99574.94
2018-08-11T03:26:53.478Z,99576.75
2018-08-11T03:29:55.716Z,99583.59
2018-08-11T03:32:57.988Z,99579.27
2018-08-11T03:36:00.466Z,99576.94
2018-08-11T03:39:03.059Z,99581.27
2018-08-11T03:49:36.872Z,99587.95
2018-08-11T03:52:40.122Z,99588.41
2018-08-11T03:55:42.399Z,99592.47
2018-08-11T03:58:44.621Z,99589.88
2018-08-11T04:01:46.888Z,99587.06
2018-08-11T04:04:49.955Z,99587.64
2018-08-11T04:07:52.306Z,99587.72
2018-08-11T04:10:54.482Z,99593.80
2018-08-11T04:13:56.673Z,99596.89
2018-08-11T04:16:58.940Z,99599.45
2018-08-11T04:20:01.111Z,99597.73
2018-08-11T04:23:03.420Z,99603.69
2018-08-11T04:26:05.609Z,99607.83
2018-08-11T04:29:08.401Z,99607.91
2018-08-11T04:32:10.606Z,99605.91
2018-08-11T04:35:12.926Z,99610.23
2018-08-11T04:38:15.225Z,99613.55
2018-08-11T04:41:17.423Z,99612.52
2018-08-11T04:44:19.733Z,99613.28
2018-08-11T04:47:22.004Z,99602.59
2018-08-11T04:50:24.336Z,99603.17
2018-08-11T04:53:26.506Z,99605.77
2018-08-11T04:56:28.672Z,99614.50
2018-08-11T04:59:30.946Z,99625.42
2018-08-11T05:02:33.108Z,99620.21
2018-08-11T05:05:35.324Z,99623.16
2018-08-11T05:08:37.600Z,99624.36
2018-08-11T05:11:39.885Z,99638.23
2018-08-11T05:14:42.223Z,99652.72
2018-08-11T05:17:44.532Z,99658.59
2018-08-11T05:20:46.808Z,99652.50
2018-08-11T05:23:49.106Z,99659.30
2018-08-11T05:26:51.329Z,99665.06
2018-08-11T05:29:53.680Z,99655.63
2018-08-11T05:32:55.905Z,99668.16
2018-08-11T05:35:58.402Z,99671.63
2018-08-11T05:39:00.716Z,99674.23
2018-08-11T05:42:03.040Z,99681.61
2018-08-11T05:45:05.280Z,99680.02
2018-08-11T05:48:07.566Z,99665.80
2018-08-11T05:51:09.822Z,99669.30
2018-08-11T05:54:12.028Z,99672.73
2018-08-11T05:57:14.284Z,99675.03
2018-08-11T06:00:16.610Z,99690.91
2018-08-11T06:03:19.053Z,99691.34
2018-08-11T06:06:22.612Z,99685.62
2018-08-11T06:09:24.904Z,99694.89
2018-08-11T06:12:27.101Z,99686.13
2018-08-11T06:15:29.375Z,99692.16
2018-08-11T06:18:31.947Z,99695.02
2018-08-11T06:21:34.546Z,99704.63
2018-08-11T06:24:36.780Z,99700.34
2018-08-11T06:27:39.452Z,99700.34
2018-08-11T06:30:41.755Z,99700.44
2018-08-11T06:33:44.175Z,99696.27
2018-08-11T06:36:46.408Z,99707.77
2018-08-11T06:39:48.616Z,99706.63
2018-08-11T06:42:50.955Z,99707.05
2018-08-11T06:45:53.182Z,99712.36
2018-08-11T06:48:56.967Z,99712.09
2018-08-11T06:51:59.237Z,99708.00
2018-08-11T06:55:01.551Z,99712.00
2018-08-11T06:58:03.734Z,99711.91
2018-08-11T07:01:05.947Z,99717.03
2018-08-11T07:04:08.183Z,99713.25
2018-08-11T07:07:10.417Z,99717.84
2018-08-11T07:10:12.641Z,99728.58
2018-08-11T07:13:14.942Z,99723.22
2018-08-11T07:16:17.260Z,99730.30
2018-08-11T07:19:19.472Z,99728.02
2018-08-11T07:22:21.755Z,99718.77
2018-08-11T07:25:24.054Z,99724.06
2018-08-11T07:28:26.828Z,99724.80
2018-08-11T07:31:29.069Z,99718.67
2018-08-11T07:34:31.428Z,99713.09
2018-08-11T07:37:33.784Z,99726.31
2018-08-11T07:40:36.126Z,99719.84
2018-08-11T07:43:38.421Z,99721.13
2018-08-11T07:46:40.665Z,99710.97
2018-08-11T07:49:42.950Z,99716.44
2018-08-11T07:52:45.196Z,99723.40
2018-08-11T07:55:47.485Z,99715.26
2018-08-11T07:58:49.741Z,99725.80
2018-08-11T08:01:52.049Z,99731.72
2018-08-11T08:04:55.545Z,99728.77
2018-08-11T08:07:57.825Z,99730.72
2018-08-11T08:11:00.166Z,99731.02
2018-08-11T08:14:02.535Z,99730.92
2018-08-11T08:17:05.023Z,99731.72
2018-08-11T08:20:07.322Z,99731.64
2018-08-11T08:23:09.532Z,99728.17
2018-08-11T08:26:11.842Z,99731.11
2018-08-11T08:29:14.203Z,99731.21
2018-08-11T08:32:16.473Z,99731.35
2018-08-11T08:35:18.675Z,99743.75
2018-08-11T08:38:20.868Z,99738.45
2018-08-11T08:41:23.094Z,99734.08
2018-08-11T08:44:25.331Z,99735.95
2018-08-11T08:47:28.579Z,99739.21
2018-08-11T08:50:30.800Z,99737.93
2018-08-11T08:53:33.064Z,99729.75
2018-08-11T08:56:35.331Z,99733.52
2018-08-11T08:59:37.614Z,99738.14
2018-08-11T09:02:39.975Z,99735.31
2018-08-11T09:05:42.256Z,99744.66
2018-08-11T09:08:44.699Z,99737.97
2018-08-11T09:11:59.305Z,99738.09
2018-08-11T09:15:01.640Z,99737.73
2018-08-11T09:18:04.419Z,99741.31
2018-08-11T09:21:07.909Z,99724.78
2018-08-11T09:24:10.604Z,99731.02
2018-08-11T09:27:13.064Z,99736.22
2018-08-11T09:30:15.598Z,99734.61
2018-08-11T09:33:17.864Z,99742.37
2018-08-11T09:36:20.142Z,99733.91
2018-08-11T09:39:22.424Z,99721.98
2018-08-11T09:42:24.761Z,99726.17
2018-08-11T09:45:27.004Z,99721.61
2018-08-11T09:48:29.309Z,99723.34
2018-08-11T09:51:31.631Z,99726.84
2018-08-11T09:54:33.908Z,99716.64
2018-08-11T09:57:36.404Z,99732.45
2018-08-11T10:00:44.324Z,99706.35
2018-08-11T10:03:46.554Z,99707.83
2018-08-11T10:06:48.881Z,99720.93
2018-08-11T10:09:51.090Z,99718.75
2018-08-11T10:12:53.398Z,99710.32
2018-08-11T10:15:55.756Z,99714.42
2018-08-11T10:18:58.044Z,99712.41
2018-08-11T10:22:00.345Z,99705.83
2018-08-11T10:25:02.644Z,99699.52
2018-08-11T10:28:04.956Z,99703.17
2018-08-11T10:31:07.216Z,99684.42
2018-08-11T10:34:09.468Z,99681.96
2018-08-11T10:37:11.689Z,99687.13
2018-08-11T10:40:15.615Z,99686.36
2018-08-11T10:43:23.175Z,99682.41
2018-08-11T10:46:25.413Z,99688.19
2018-08-11T10:49:27.614Z,99694.00
2018-08-11T10:52:29.892Z,99699.70
2018-08-11T10:55:32.267Z,99694.38
2018-08-11T10:58:34.673Z,99694.66
2018-08-11T11:01:37.064Z,99672.19
2018-08-11T11:04:40.597Z,99685.28
2018-08-11T11:07:42.857Z,99676.49
2018-08-11T11:10:45.156Z,99682.67
2018-08-11T11:13:47.413Z,99678.84
2018-08-11T11:16:49.725Z,99674.35
2018-08-11T11:19:51.985Z,99692.59
2018-08-11T11:22:54.228Z,99688.30
2018-08-11T11:25:56.568Z,99688.08
2018-08-11T11:28:59.728Z,99678.05
2018-08-11T11:32:02.244Z,99681.66
2018-08-11T11:35:04.983Z,99679.38
2018-08-11T11:38:07.267Z,99675.53
2018-08-11T11:41:10.243Z,99679.08
2018-08-11T11:44:12.464Z,99672.20
2018-08-11T11:47:15.914Z,99669.84
2018-08-11T11:50:18.142Z,99648.02
2018-08-11T11:53:20.472Z,99662.31
2018-08-11T11:56:22.823Z,99652.85
2018-08-11T11:59:25.074Z,99634.99
2018-08-11T12:02:27.394Z,99636.86
2018-08-11T12:05:29.883Z,99644.31
2018-08-11T12:08:32.231Z,99624.61
2018-08-11T12:11:35.114Z,99659.44
2018-08-11T12:14:37.374Z,99648.73
2018-08-11T12:17:39.576Z,99617.67
2018-08-11T12:20:41.813Z,99605.30
2018-08-11T12:23:44.126Z,99566.51
2018-08-11T12:26:46.384Z,99555.26
2018-08-11T12:29:48.632Z,99567.30
2018-08-11T12:32:51.832Z,99598.38
2018-08-11T12:35:54.060Z,99605.97
2018-08-11T12:38:56.340Z,99639.78
2018-08-11T12:41:58.611Z,99669.96
2018-08-11T12:45:00.869Z,99627.42
2018-08-11T12:48:03.122Z,99625.91
2018-08-11T12:51:05.401Z,99583.52
2018-08-11T12:54:07.771Z,99554.55
2018-08-11T12:57:10.921Z,99542.96
2018-08-11T13:00:13.234Z,99563.16
2018-08-11T13:03:15.690Z,99645.73
2018-08-11T13:06:18.037Z,99580.36
2018-08-11T13:09:20.344Z,99443.59
2018-08-11T13:12:23.284Z,99454.23
2018-08-11T13:15:26.661Z,99496.81
2018-08-11T13:18:28.857Z,99474.91
2018-08-11T13:21:31.079Z,99527.05
2018-08-11T13:24:33.444Z,99539.14
2018-08-11T13:27:35.690Z,99522.42
2018-08-11T13:30:37.897Z,99504.14
2018-08-11T13:33:40.199Z,99535.56
2018-08-11T13:36:42.537Z,99471.70
2018-08-11T13:39:47.072Z,99441.41
2018-08-11T13:42:49.385Z,99420.28
2018-08-11T13:45:51.674Z,99406.55
2018-08-11T13:48:53.976Z,99413.48
2018-08-11T13:51:56.197Z,99511.75
2018-08-11T13:54:58.431Z,99510.51
2018-08-11T13:58:01.405Z,99444.95
2018-08-11T14:01:03.655Z,99422.73
2018-08-11T14:04:06.012Z,99471.25
2018-08-11T14:07:08.243Z,99467.05
2018-08-11T14:10:11.076Z,99485.91
2018-08-11T14:13:13.331Z,99419.95
2018-08-11T14:16:15.769Z,99422.03
2018-08-11T14:19:18.097Z,99501.52
2018-08-11T14:22:20.362Z,99342.56
2018-08-11T14:25:22.938Z,99417.45
2018-08-11T14:28:25.201Z,99530.72
2018-08-11T14:31:27.592Z,99410.91
2018-08-11T14:34:29.852Z,99372.64
2018-08-11T14:37:32.102Z,99466.71
2018-08-11T14:40:34.355Z,99613.57
2018-08-11T14:43:36.668Z,99575.52
2018-08-11T14:46:39.401Z,99434.04
2018-08-11T14:49:41.663Z,99493.59
2018-08-11T14:52:43.942Z,99554.13
2018-08-11T14:55:46.201Z,99573.63
2018-08-11T14:58:48.416Z,99477.72
2018-08-11T15:01:50.677Z,99351.31
2018-08-11T15:04:53.150Z,99300.02
2018-08-11T15:07:55.412Z,99262.65
2018-08-11T15:10:57.648Z,99292.35
2018-08-11T15:13:59.879Z,99251.20
2018-08-11T15:17:02.286Z,99302.89
2018-08-11T15:20:05.838Z,99366.48
2018-08-11T15:23:08.049Z,99401.11
2018-08-11T15:26:10.394Z,99385.80
2018-08-11T15:29:12.657Z,99370.91
2018-08-11T15:32:15.030Z,99340.42
2018-08-11T15:35:18.012Z,99337.08
2018-08-11T15:38:20.220Z,99241.20
2018-08-11T15:41:22.407Z,99218.21
2018-08-11T15:44:24.641Z,99186.07
2018-08-11T15:47:27.848Z,99260.42
2018-08-11T15:50:30.128Z,99172.49
2018-08-11T15:53:32.397Z,99261.20
2018-08-11T15:56:34.708Z,99191.11
2018-08-11T15:59:37.798Z,99238.02
2018-08-11T16:02:40.039Z,99200.95
2018-08-11T16:05:42.292Z,99253.02
2018-08-11T16:08:44.605Z,99189.33
2018-08-11T16:11:46.927Z,99344.17
2018-08-11T16:14:49.359Z,99544.39
2018-08-11T16:17:51.596Z,99664.05
2018-08-11T16:20:53.928Z,99625.60
2018-08-11T16:23:56.224Z,99662.24
2018-08-11T16:26:58.487Z,99654.19
2018-08-11T16:30:00.893Z,99548.52
2018-08-11T16:33:03.328Z,99509.27
2018-08-11T16:36:05.849Z,99429.25
2018-08-11T16:39:08.733Z,99296.10
2018-08-11T16:42:10.968Z,99263.56
2018-08-11T16:45:13.179Z,99294.42
2018-08-11T16:48:15.460Z,99492.38
2018-08-11T16:51:17.795Z,99475.05
2018-08-11T16:54:20.087Z,99470.05
2018-08-11T16:57:22.872Z,99495.38
2018-08-11T17:00:25.168Z,99499.30
2018-08-11T17:03:27.430Z,99470.02
2018-08-11T17:06:30.684Z,99498.04
2018-08-11T17:09:33.061Z,99460.31
2018-08-11T17:12:37.531Z,99552.88
2018-08-11T17:15:39.809Z,99552.69
2018-08-11T17:18:42.014Z,99593.86
2018-08-11T17:21:44.298Z,99642.92
2018-08-11T17:24:46.572Z,99651.75
2018-08-11T17:27:52.988Z,99673.78
2018-08-11T17:30:55.314Z,99675.17
2018-08-11T17:34:00.673Z,99696.21
2018-08-11T17:37:02.894Z,99747.52
2018-08-11T17:40:05.797Z,99723.65
2018-08-11T17:43:08.124Z,99696.77
2018-08-11T17:46:10.395Z,99636.95
2018-08-11T17:49:13.236Z,99610.36
2018-08-11T17:52:19.511Z,99559.66
2018-08-11T17:55:21.756Z,99541.07
2018-08-11T17:58:23.944Z,99512.24
2018-08-11T18:01:26.798Z,99593.81
2018-08-11T18:04:28.981Z,99634.54
2018-08-11T18:07:31.320Z,99692.64
2018-08-11T18:10:33.849Z,99687.76
2018-08-11T18:13:36.636Z,99724.58
2018-08-11T18:16:41.388Z,99727.94
2018-08-11T18:19:43.625Z,99764.98
2018-08-11T18:22:46.006Z,99703.09
2018-08-11T18:25:48.298Z,99648.25
2018-08-11T18:28:50.565Z,99617.28
2018-08-11T18:31:52.918Z,99621.95
2018-08-11T18:34:55.190Z,99597.06
2018-08-11T18:37:57.485Z,99619.82
2018-08-11T18:40:59.694Z,99577.31
2018-08-11T18:44:02.000Z,99573.45
2018-08-11T18:47:04.413Z,99583.77
2018-08-11T18:50:06.639Z,99581.46
2018-08-11T18:53:09.075Z,99606.42
2018-08-11T18:56:11.346Z,99584.00
2018-08-11T18:59:13.551Z,99582.58
2018-08-11T19:02:15.812Z,99584.39
2018-08-11T19:05:18.088Z,99591.96
2018-08-11T19:08:20.389Z,99596.37
2018-08-11T19:11:22.710Z,99599.51
2018-08-11T19:14:25.071Z,99594.44
2018-08-11T19:17:27.413Z,99597.30
2018-08-11T19:20:29.778Z,99602.38
2018-08-11T19:23:32.532Z,99601.21
2018-08-11T19:26:37.410Z,99609.53
2018-08-11T19:29:40.215Z,99607.27
2018-08-11T19:32:42.649Z,99614.75
2018-08-11T19:35:44.819Z,99611.87
2018-08-11T19:38:47.525Z,99614.56
2018-08-11T19:41:53.490Z,99615.86
2018-08-11T19:44:55.809Z,99616.81
2018-08-11T19:48:02.710Z,99626.55
2018-08-11T19:51:05.202Z,99620.96
2018-08-11T19:54:11.442Z,99622.78
2018-08-11T19:57:17.270Z,99618.56
2018-08-11T20:00:19.965Z,99619.42
2018-08-11T20:03:22.244Z,99618.93
2018-08-11T20:06:24.479Z,99612.52
2018-08-11T20:09:26.806Z,99619.01
2018-08-11T20:12:29.154Z,99625.05
2018-08-11T20:15:31.625Z,99616.11
2018-08-11T20:18:34.555Z,99616.95
2018-08-11T20:21:37.769Z,99623.55
2018-08-11T20:24:40.102Z,99616.19
2018-08-11T20:27:42.428Z,99616.78
2018-08-11T20:30:44.765Z,99615.17
2018-08-11T20:33:47.034Z,99617.91
2018-08-11T20:36:53.822Z,99618.80
2018-08-11T20:47:27.881Z,99617.86
2018-08-11T20:50:30.219Z,99622.06
2018-08-11T20:53:32.489Z,99618.59
2018-08-11T20:56:34.807Z,99626.16
2018-08-11T20:59:37.077Z,99623.54
2018-08-11T21:02:39.306Z,99622.34
2018-08-11T21:05:41.635Z,99625.42
2018-08-11T21:08:44.260Z,99623.99
2018-08-11T21:11:46.500Z,99627.63
2018-08-11T21:14:48.764Z,99627.50
2018-08-11T21:17:50.935Z,99627.50
2018-08-11T21:20:53.200Z,99629.99
2018-08-11T21:23:55.612Z,99624.89
2018-08-11T21:26:57.783Z,99633.09
2018-08-11T21:30:00.014Z,99630.31
2018-08-11T21:33:02.285Z,99627.69
2018-08-11T21:36:04.753Z,99627.37
2018-08-11T21:39:09.360Z,99627.84
2018-08-11T21:42:11.654Z,99625.19
2018-08-11T21:45:13.852Z,99632.05
2018-08-11T21:48:16.347Z,99626.31
2018-08-11T21:51:18.643Z,99624.22
2018-08-11T21:54:20.793Z,99628.50
2018-08-11T21:57:22.949Z,99623.59
2018-08-11T22:00:34.018Z,99622.78
2018-08-11T22:03:36.294Z,99625.72
2018-08-11T22:06:38.568Z,99622.59
2018-08-11T22:09:40.756Z,99620.30
2018-08-11T22:12:43.106Z,99615.38
2018-08-11T22:15:45.437Z,99620.47
2018-08-11T22:18:47.805Z,99615.88
2018-08-11T22:21:50.261Z,99612.76
2018-08-11T22:24:52.531Z,99609.12
2018-08-11T22:27:54.832Z,99605.77
2018-08-11T22:30:57.114Z,99606.69
2018-08-11T22:33:59.319Z,99598.50
2018-08-11T22:37:01.710Z,99599.98
2018-08-11T22:40:05.038Z,99595.61
2018-08-11T22:43:07.244Z,99598.23
2018-08-11T22:46:09.590Z,99601.72
2018-08-11T22:49:11.873Z,99596.66
2018-08-11T22:52:14.252Z,99595.19
2018-08-11T22:55:16.624Z,99592.55
2018-08-11T22:58:18.880Z,99586.33
2018-08-11T23:01:21.121Z,99584.53
2018-08-11T23:04:23.373Z,99584.81
2018-08-11T23:07:25.663Z,99586.23
2018-08-11T23:10:27.939Z,99582.94
2018-08-11T23:13:30.218Z,99580.29
2018-08-11T23:16:32.474Z,99579.89
2018-08-11T23:20:37.855Z,99583.17
2018-08-11T23:23:40.084Z,99577.41
2018-08-11T23:26:43.108Z,99574.33
2018-08-11T23:29:45.353Z,99575.52
2018-08-11T23:32:47.645Z,99574.75
2018-08-11T23:35:49.974Z,99575.23
2018-08-11T23:38:52.345Z,99573.59
2018-08-11T23:41:54.699Z,99565.23
2018-08-11T23:44:57.284Z,99567.15
2018-08-11T23:47:59.512Z,99562.89
2018-08-11T23:51:01.867Z,99561.23
2018-08-11T23:54:04.107Z,99556.47
2018-08-11T23:57:06.553Z,99563.95
